createdAt,value
2024-03-16T00:00:12.078Z,58.73
2024-03-16T00:00:44.911Z,58.85
2024-03-16T00:01:17.648Z,58.83
2024-03-16T00:01:50.393Z,58.60
2024-03-16T00:02:22.909Z,58.62
2024-03-16T00:02:55.414Z,58.65
2024-03-16T00:03:30.027Z,58.64
2024-03-16T00:04:02.847Z,58.60
2024-03-16T00:04:35.481Z,58.61
2024-03-16T00:05:08.161Z,58.72
2024-03-16T00:05:40.714Z,58.72
2024-03-16T00:06:13.238Z,58.67
2024-03-16T00:06:45.881Z,58.76
2024-03-16T00:07:18.483Z,58.86
2024-03-16T00:07:51.026Z,58.86
2024-03-16T00:08:23.739Z,58.88
2024-03-16T00:08:56.240Z,59.01
2024-03-16T00:09:29.286Z,59.04
2024-03-16T00:10:02.161Z,58.97
2024-03-16T00:10:35.186Z,58.90
2024-03-16T00:11:07.793Z,58.95
2024-03-16T00:11:40.452Z,59.04
2024-03-16T00:12:12.963Z,58.98
2024-03-16T00:12:45.536Z,58.99
2024-03-16T00:13:18.101Z,59.15
2024-03-16T00:13:50.612Z,59.13
2024-03-16T00:14:24.505Z,59.08
2024-03-16T00:14:57.135Z,59.16
2024-03-16T00:15:29.765Z,59.20
2024-03-16T00:16:02.346Z,59.14
2024-03-16T00:16:34.923Z,59.01
2024-03-16T00:17:07.418Z,59.00
2024-03-16T00:17:40.014Z,59.08
2024-03-16T00:18:12.842Z,59.18
2024-03-16T00:18:45.433Z,59.22
2024-03-16T00:19:19.225Z,59.32
2024-03-16T00:19:51.748Z,59.13
2024-03-16T00:20:24.266Z,59.17
2024-03-16T00:20:56.826Z,59.13
2024-03-16T00:21:29.431Z,59.28
2024-03-16T00:22:02.288Z,59.30
2024-03-16T00:22:35.354Z,59.40
2024-03-16T00:23:08.788Z,59.30
2024-03-16T00:23:41.310Z,59.26
2024-03-16T00:24:14.991Z,59.33
2024-03-16T00:24:47.621Z,59.26
2024-03-16T00:25:20.183Z,59.30
2024-03-16T00:25:52.722Z,59.29
2024-03-16T00:26:25.239Z,59.48
2024-03-16T00:26:58.762Z,59.44
2024-03-16T00:27:31.329Z,59.48
2024-03-16T00:28:04.029Z,59.38
2024-03-16T00:28:36.545Z,59.44
2024-03-16T00:29:09.070Z,59.41
2024-03-16T00:29:41.607Z,59.49
2024-03-16T00:30:15.157Z,59.56
2024-03-16T00:30:47.964Z,59.49
2024-03-16T00:31:20.932Z,59.53
2024-03-16T00:31:53.558Z,59.63
2024-03-16T00:32:26.149Z,59.56
2024-03-16T00:32:58.731Z,59.51
2024-03-16T00:33:31.307Z,59.58
2024-03-16T00:34:07.177Z,59.58
2024-03-16T00:34:39.856Z,59.60
2024-03-16T00:35:12.373Z,59.70
2024-03-16T00:35:44.901Z,59.71
2024-03-16T00:36:18.737Z,59.69
2024-03-16T00:36:51.260Z,59.66
2024-03-16T00:37:23.797Z,59.76
2024-03-16T00:37:56.347Z,59.75
2024-03-16T00:38:28.827Z,59.84
2024-03-16T00:39:01.329Z,59.82
2024-03-16T00:39:33.984Z,59.84
2024-03-16T00:40:09.184Z,59.76
2024-03-16T00:40:41.790Z,59.91
2024-03-16T00:41:14.295Z,59.84
2024-03-16T00:41:46.782Z,59.87
2024-03-16T00:42:21.187Z,59.96
2024-03-16T00:42:53.774Z,60.02
2024-03-16T00:43:26.377Z,60.08
2024-03-16T00:43:58.924Z,60.13
2024-03-16T00:44:31.449Z,60.09
2024-03-16T00:45:07.279Z,60.19
2024-03-16T00:45:39.869Z,60.22
2024-03-16T00:46:12.469Z,60.19
2024-03-16T00:46:45.560Z,60.18
2024-03-16T00:47:18.082Z,60.29
2024-03-16T00:47:50.718Z,60.37
2024-03-16T00:48:23.261Z,60.36
2024-03-16T00:48:55.918Z,60.46
2024-03-16T00:49:28.465Z,60.52
2024-03-16T00:50:00.963Z,60.53
2024-03-16T00:50:33.870Z,60.63
2024-03-16T00:51:06.498Z,60.67
2024-03-16T00:51:39.049Z,60.66
2024-03-16T00:52:11.645Z,60.73
2024-03-16T00:52:44.270Z,60.88
2024-03-16T00:53:19.034Z,60.70
2024-03-16T00:53:51.551Z,60.65
2024-03-16T00:54:24.641Z,60.68
2024-03-16T00:54:57.788Z,60.84
2024-03-16T00:55:32.235Z,60.85
2024-03-16T00:56:05.538Z,60.76
2024-03-16T00:56:39.671Z,60.67
2024-03-16T00:57:12.218Z,60.69
2024-03-16T00:57:44.798Z,60.72
2024-03-16T00:58:17.351Z,60.72
2024-03-16T00:58:49.917Z,60.81
2024-03-16T00:59:23.312Z,60.81
2024-03-16T00:59:56.108Z,60.89
2024-03-16T01:00:29.269Z,61.10
2024-03-16T01:01:01.948Z,60.97
2024-03-16T01:01:38.074Z,60.88
2024-03-16T01:02:10.620Z,60.89
2024-03-16T01:02:43.310Z,60.92
2024-03-16T01:03:16.390Z,61.04
2024-03-16T01:03:49.127Z,61.07
2024-03-16T01:04:21.635Z,61.14
2024-03-16T01:04:54.130Z,61.14
2024-03-16T01:05:28.488Z,61.12
2024-03-16T01:06:01.021Z,61.23
2024-03-16T01:06:33.538Z,61.28
2024-03-16T01:07:06.240Z,61.43
2024-03-16T01:07:38.796Z,61.52
2024-03-16T01:08:11.325Z,61.42
2024-03-16T01:08:43.854Z,61.33
2024-03-16T01:09:17.409Z,61.31
2024-03-16T01:09:49.975Z,61.40
2024-03-16T01:10:22.615Z,61.52
2024-03-16T01:10:55.985Z,61.59
2024-03-16T01:11:28.666Z,61.65
2024-03-16T01:12:01.209Z,61.59
2024-03-16T01:12:35.022Z,61.51
2024-03-16T01:13:08.046Z,61.59
2024-03-16T01:13:40.741Z,61.70
2024-03-16T01:14:13.270Z,61.66
2024-03-16T01:14:45.800Z,61.69
2024-03-16T01:15:18.384Z,61.68
2024-03-16T01:15:52.137Z,61.62
2024-03-16T01:16:24.865Z,61.69
2024-03-16T01:16:57.349Z,61.66
2024-03-16T01:17:29.869Z,61.66
2024-03-16T01:18:02.412Z,61.67
2024-03-16T01:18:34.988Z,61.62
2024-03-16T01:19:07.676Z,61.56
2024-03-16T01:19:43.025Z,61.68
2024-03-16T01:20:16.803Z,61.70
2024-03-16T01:20:49.363Z,61.68
2024-03-16T01:21:21.935Z,61.62
2024-03-16T01:21:54.558Z,61.62
2024-03-16T01:22:27.111Z,61.65
2024-03-16T01:23:01.266Z,61.63
2024-03-16T01:23:35.007Z,61.47
2024-03-16T01:24:07.499Z,61.40
2024-03-16T01:24:40.073Z,61.44
2024-03-16T01:25:14.260Z,61.46
2024-03-16T01:25:48.046Z,61.46
2024-03-16T01:26:20.708Z,61.50
2024-03-16T01:26:53.332Z,61.60
2024-03-16T01:27:26.013Z,61.65
2024-03-16T01:27:58.645Z,61.72
2024-03-16T01:28:31.660Z,61.80
2024-03-16T01:29:05.404Z,61.67
2024-03-16T01:29:37.955Z,61.69
2024-03-16T01:30:10.633Z,61.71
2024-03-16T01:30:43.311Z,61.77
2024-03-16T01:31:15.975Z,61.91
2024-03-16T01:31:48.548Z,62.03
2024-03-16T01:32:21.136Z,61.97
2024-03-16T01:32:53.758Z,61.96
2024-03-16T01:33:26.916Z,62.17
2024-03-16T01:33:59.523Z,62.13
2024-03-16T01:34:32.073Z,62.16
2024-03-16T01:35:04.686Z,62.07
2024-03-16T01:35:37.906Z,62.00
2024-03-16T01:36:10.624Z,61.93
2024-03-16T01:36:43.165Z,61.96
2024-03-16T01:37:15.778Z,62.12
2024-03-16T01:37:48.385Z,62.26
2024-03-16T01:38:21.192Z,62.36
2024-03-16T01:38:53.795Z,62.27
2024-03-16T01:39:31.109Z,62.12
2024-03-16T01:40:04.013Z,62.16
2024-03-16T01:40:36.563Z,62.27
2024-03-16T01:41:09.149Z,62.39
2024-03-16T01:41:41.697Z,62.29
2024-03-16T01:42:14.236Z,62.27
2024-03-16T01:42:46.802Z,62.45
2024-03-16T01:43:19.358Z,62.35
2024-03-16T01:43:51.889Z,62.30
2024-03-16T01:44:24.423Z,62.28
2024-03-16T01:45:08.499Z,62.31
2024-03-16T01:45:42.385Z,62.44
2024-03-16T01:46:16.994Z,62.43
2024-03-16T01:46:49.661Z,62.24
2024-03-16T01:47:22.898Z,62.23
2024-03-16T01:47:56.711Z,62.28
2024-03-16T01:48:29.451Z,62.26
2024-03-16T01:49:02.147Z,62.28
2024-03-16T01:49:34.662Z,62.29
2024-03-16T01:50:08.860Z,62.40
2024-03-16T01:50:42.744Z,62.28
2024-03-16T01:51:15.251Z,62.30
2024-03-16T01:51:47.791Z,62.35
2024-03-16T01:52:20.331Z,62.30
2024-03-16T01:52:52.859Z,62.45
2024-03-16T01:53:25.362Z,62.55
2024-03-16T01:53:57.890Z,62.54
2024-03-16T01:54:32.039Z,62.54
2024-03-16T01:55:05.542Z,62.68
2024-03-16T01:55:39.300Z,62.83
2024-03-16T01:56:12.111Z,62.79
2024-03-16T01:56:44.661Z,62.81
2024-03-16T01:57:17.206Z,62.62
2024-03-16T01:57:49.795Z,62.55
2024-03-16T01:58:22.374Z,62.53
2024-03-16T01:58:54.925Z,62.44
2024-03-16T01:59:27.424Z,62.55
2024-03-16T02:00:02.386Z,62.55
2024-03-16T02:00:35.944Z,62.55
2024-03-16T02:01:08.583Z,62.59
2024-03-16T02:01:41.181Z,62.63
2024-03-16T02:02:42.140Z,62.55
2024-03-16T02:03:15.057Z,62.39
2024-03-16T02:03:47.958Z,62.30
2024-03-16T02:04:20.552Z,62.23
2024-03-16T02:04:53.089Z,62.30
2024-03-16T02:05:25.622Z,62.34
2024-03-16T02:05:58.202Z,62.35
2024-03-16T02:06:30.710Z,62.35
2024-03-16T02:07:10.208Z,62.23
2024-03-16T02:07:45.620Z,62.29
2024-03-16T02:08:18.106Z,62.24
2024-03-16T02:08:50.595Z,62.30
2024-03-16T02:09:24.416Z,62.34
2024-03-16T02:09:57.149Z,62.24
2024-03-16T02:10:29.731Z,62.17
2024-03-16T02:11:02.266Z,62.29
2024-03-16T02:11:34.781Z,62.25
2024-03-16T02:12:12.331Z,62.22
2024-03-16T02:12:44.999Z,62.24
2024-03-16T02:13:17.609Z,62.17
2024-03-16T02:13:50.411Z,62.11
2024-03-16T02:14:22.943Z,62.19
2024-03-16T02:14:55.465Z,62.09
2024-03-16T02:15:28.048Z,62.16
2024-03-16T02:16:00.615Z,62.11
2024-03-16T02:16:33.156Z,62.19
2024-03-16T02:17:05.945Z,62.22
2024-03-16T02:17:39.162Z,62.05
2024-03-16T02:18:11.704Z,62.16
2024-03-16T02:18:44.264Z,61.94
2024-03-16T02:19:16.835Z,61.81
2024-03-16T02:19:49.501Z,61.91
2024-03-16T02:20:22.065Z,61.97
2024-03-16T02:20:55.350Z,62.12
2024-03-16T02:21:27.937Z,62.35
2024-03-16T02:22:00.585Z,62.38
2024-03-16T02:22:33.121Z,62.50
2024-03-16T02:23:05.646Z,62.43
2024-03-16T02:23:38.485Z,62.24
2024-03-16T02:24:11.005Z,62.21
2024-03-16T02:24:49.882Z,62.08
2024-03-16T02:25:23.698Z,61.96
2024-03-16T02:25:56.214Z,62.09
2024-03-16T02:26:28.756Z,62.18
2024-03-16T02:27:01.302Z,62.25
2024-03-16T02:27:33.843Z,62.43
2024-03-16T02:28:09.429Z,62.45
2024-03-16T02:28:42.103Z,62.49
2024-03-16T02:29:15.929Z,62.53
2024-03-16T02:29:48.782Z,62.44
2024-03-16T02:30:21.306Z,62.45
2024-03-16T02:30:54.007Z,62.17
2024-03-16T02:31:26.604Z,62.10
2024-03-16T02:31:59.520Z,61.96
2024-03-16T02:32:32.170Z,61.93
2024-03-16T02:33:08.265Z,62.05
2024-03-16T02:33:41.102Z,61.91
2024-03-16T02:34:14.187Z,61.61
2024-03-16T02:34:47.034Z,61.54
2024-03-16T02:35:19.552Z,61.79
2024-03-16T02:35:52.133Z,61.74
2024-03-16T02:36:24.843Z,61.56
2024-03-16T02:36:57.510Z,61.65
2024-03-16T02:37:30.100Z,61.63
2024-03-16T02:38:02.594Z,61.58
2024-03-16T02:38:35.461Z,61.74
2024-03-16T02:39:08.011Z,61.66
2024-03-16T02:39:40.599Z,61.44
2024-03-16T02:40:13.311Z,61.52
2024-03-16T02:40:45.949Z,61.54
2024-03-16T02:41:18.443Z,61.67
2024-03-16T02:41:51.008Z,61.65
2024-03-16T02:42:23.508Z,61.66
2024-03-16T02:42:56.084Z,61.43
2024-03-16T02:43:28.625Z,61.17
2024-03-16T02:44:01.124Z,61.11
2024-03-16T02:44:33.834Z,61.12
2024-03-16T02:45:07.124Z,61.17
2024-03-16T02:45:39.629Z,61.16
2024-03-16T02:46:12.272Z,61.17
2024-03-16T02:46:44.858Z,61.18
2024-03-16T02:47:17.353Z,61.28
2024-03-16T02:47:49.917Z,61.34
2024-03-16T02:48:22.501Z,61.17
2024-03-16T02:48:56.108Z,61.03
2024-03-16T02:49:29.067Z,60.98
2024-03-16T02:50:05.044Z,61.13
2024-03-16T02:50:37.721Z,61.17
2024-03-16T02:51:10.257Z,60.98
2024-03-16T02:51:43.027Z,61.09
2024-03-16T02:52:15.741Z,61.13
2024-03-16T02:52:48.721Z,61.04
2024-03-16T02:53:21.201Z,61.09
2024-03-16T02:53:57.062Z,61.05
2024-03-16T02:54:29.582Z,60.97
2024-03-16T02:55:02.207Z,60.98
2024-03-16T02:55:34.784Z,60.97
2024-03-16T02:56:07.268Z,61.04
2024-03-16T02:56:39.860Z,61.09
2024-03-16T02:57:12.543Z,60.89
2024-03-16T02:57:45.221Z,60.71
2024-03-16T02:58:17.880Z,60.76
2024-03-16T02:58:51.413Z,61.10
2024-03-16T02:59:23.912Z,60.78
2024-03-16T02:59:56.426Z,60.86
2024-03-16T03:00:28.986Z,61.11
2024-03-16T03:01:01.604Z,61.11
2024-03-16T03:01:34.970Z,60.94
2024-03-16T03:02:07.573Z,60.92
2024-03-16T03:02:40.176Z,60.92
2024-03-16T03:03:13.186Z,60.87
2024-03-16T03:03:45.681Z,60.92
2024-03-16T03:04:18.187Z,60.92
2024-03-16T03:04:54.899Z,60.69
2024-03-16T03:05:27.420Z,60.52
2024-03-16T03:05:59.898Z,60.16
2024-03-16T03:06:33.343Z,60.27
2024-03-16T03:07:06.305Z,60.45
2024-03-16T03:07:39.648Z,60.68
2024-03-16T03:08:12.193Z,60.61
2024-03-16T03:08:46.182Z,60.34
2024-03-16T03:09:19.338Z,60.45
2024-03-16T03:09:51.941Z,60.62
2024-03-16T03:10:24.493Z,60.45
2024-03-16T03:10:57.818Z,60.65
2024-03-16T03:11:30.435Z,60.63
2024-03-16T03:12:04.016Z,60.70
2024-03-16T03:12:36.917Z,60.63
2024-03-16T03:13:09.519Z,60.26
2024-03-16T03:13:42.078Z,60.40
2024-03-16T03:14:18.167Z,60.45
2024-03-16T03:14:50.682Z,60.60
2024-03-16T03:15:23.182Z,60.52
2024-03-16T03:15:55.772Z,60.50
2024-03-16T03:16:28.595Z,60.34
2024-03-16T03:17:01.759Z,60.35
2024-03-16T03:17:34.408Z,60.24
2024-03-16T03:18:07.230Z,60.50
2024-03-16T03:18:39.821Z,60.41
2024-03-16T03:19:12.493Z,60.41
2024-03-16T03:19:46.141Z,60.44
2024-03-16T03:20:22.023Z,60.72
2024-03-16T03:20:55.366Z,60.47
2024-03-16T03:21:27.947Z,60.31
2024-03-16T03:22:00.541Z,60.34
2024-03-16T03:22:33.891Z,60.24
2024-03-16T03:23:08.412Z,60.45
2024-03-16T03:23:41.765Z,60.57
2024-03-16T03:24:15.287Z,60.52
2024-03-16T03:24:48.001Z,60.31
2024-03-16T03:25:22.910Z,60.27
2024-03-16T03:25:55.679Z,60.21
2024-03-16T03:26:31.025Z,60.11
2024-03-16T03:27:04.392Z,60.18
2024-03-16T03:27:36.920Z,60.05
2024-03-16T03:28:09.558Z,59.99
2024-03-16T03:28:42.099Z,60.11
2024-03-16T03:29:14.627Z,60.07
2024-03-16T03:29:47.469Z,60.14
2024-03-16T03:30:19.973Z,60.28
2024-03-16T03:30:54.799Z,60.39
2024-03-16T03:31:27.356Z,60.55
2024-03-16T03:32:05.118Z,60.98
2024-03-16T03:32:37.682Z,60.82
2024-03-16T03:33:11.204Z,60.48
2024-03-16T03:33:43.992Z,60.46
2024-03-16T03:34:16.953Z,60.38
2024-03-16T03:34:50.180Z,60.38
2024-03-16T03:35:22.705Z,60.28
2024-03-16T03:35:55.264Z,60.10
2024-03-16T03:36:27.898Z,60.06
2024-03-16T03:37:00.512Z,59.89
2024-03-16T03:37:33.103Z,59.93
2024-03-16T03:38:05.989Z,60.07
2024-03-16T03:38:38.493Z,59.78
2024-03-16T03:39:19.772Z,59.79
2024-03-16T03:39:54.021Z,59.96
2024-03-16T03:40:26.935Z,59.85
2024-03-16T03:40:59.531Z,60.01
2024-03-16T03:41:32.053Z,60.16
2024-03-16T03:42:05.202Z,60.23
2024-03-16T03:42:40.937Z,60.27
2024-03-16T03:43:20.760Z,60.29
2024-03-16T03:44:01.139Z,60.18
2024-03-16T03:44:51.217Z,60.06
2024-03-16T03:45:29.049Z,60.12
2024-03-16T03:46:01.729Z,60.28
2024-03-16T03:46:52.217Z,60.32
2024-03-16T03:47:31.701Z,60.49
2024-03-16T03:48:15.794Z,60.35
2024-03-16T03:49:01.212Z,60.24
2024-03-16T03:49:36.831Z,60.34
2024-03-16T03:50:12.456Z,60.29
2024-03-16T03:50:45.618Z,60.14
2024-03-16T03:51:18.126Z,60.12
2024-03-16T03:51:50.650Z,60.14
2024-03-16T03:52:23.217Z,60.12
2024-03-16T03:53:03.538Z,60.27
2024-03-16T03:53:36.192Z,60.49
2024-03-16T03:54:08.756Z,60.61
2024-03-16T03:54:41.289Z,60.80
2024-03-16T03:55:13.847Z,60.73
2024-03-16T03:55:46.465Z,60.61
2024-03-16T03:56:18.956Z,60.52
2024-03-16T03:56:52.599Z,60.68
2024-03-16T03:57:25.094Z,60.73
2024-03-16T03:57:57.681Z,60.64
2024-03-16T03:58:30.309Z,60.56
2024-03-16T03:59:03.544Z,60.53
2024-03-16T03:59:36.098Z,60.75
2024-03-16T04:00:09.764Z,60.67
2024-03-16T04:00:45.952Z,60.57
2024-03-16T04:01:18.564Z,60.29
2024-03-16T04:01:51.135Z,60.14
2024-03-16T04:02:23.681Z,60.14
2024-03-16T04:02:56.222Z,60.17
2024-03-16T04:03:28.777Z,60.14
2024-03-16T04:04:01.444Z,60.12
2024-03-16T04:04:34.037Z,60.11
2024-03-16T04:05:06.715Z,60.23
2024-03-16T04:05:39.455Z,60.22
2024-03-16T04:06:11.962Z,60.30
2024-03-16T04:06:46.648Z,60.39
2024-03-16T04:07:19.291Z,60.61
2024-03-16T04:07:51.827Z,60.73
2024-03-16T04:08:24.379Z,60.43
2024-03-16T04:08:56.905Z,60.25
2024-03-16T04:09:29.464Z,60.23
2024-03-16T04:10:02.114Z,60.48
2024-03-16T04:10:35.902Z,60.38
2024-03-16T04:11:08.553Z,60.23
2024-03-16T04:11:41.225Z,60.05
2024-03-16T04:12:13.921Z,60.06
2024-03-16T04:12:46.945Z,59.97
2024-03-16T04:13:19.567Z,60.19
2024-03-16T04:13:52.062Z,60.23
2024-03-16T04:14:24.553Z,59.91
2024-03-16T04:14:57.527Z,59.98
2024-03-16T04:15:30.468Z,60.18
2024-03-16T04:16:03.810Z,60.17
2024-03-16T04:16:36.339Z,59.97
2024-03-16T04:17:10.071Z,59.94
2024-03-16T04:17:42.628Z,60.13
2024-03-16T04:18:15.182Z,59.96
2024-03-16T04:18:47.745Z,59.81
2024-03-16T04:19:20.320Z,59.66
2024-03-16T04:19:52.944Z,59.58
2024-03-16T04:20:25.451Z,59.76
2024-03-16T04:20:58.033Z,59.55
2024-03-16T04:21:30.597Z,59.72
2024-03-16T04:22:03.157Z,59.32
2024-03-16T04:22:35.684Z,59.21
2024-03-16T04:23:09.494Z,59.47
2024-03-16T04:23:42.032Z,58.97
2024-03-16T04:24:14.645Z,58.94
2024-03-16T04:24:47.204Z,58.94
2024-03-16T04:25:19.874Z,58.88
2024-03-16T04:25:52.437Z,59.12
2024-03-16T04:26:25.238Z,59.30
2024-03-16T04:26:57.816Z,59.32
2024-03-16T04:27:31.416Z,59.28
2024-03-16T04:28:04.147Z,59.41
2024-03-16T04:28:37.088Z,59.33
2024-03-16T04:29:09.642Z,59.69
2024-03-16T04:29:42.171Z,59.95
2024-03-16T04:30:16.166Z,59.95
2024-03-16T04:30:48.819Z,60.12
2024-03-16T04:31:21.320Z,60.34
2024-03-16T04:31:53.857Z,60.23
2024-03-16T04:32:29.322Z,60.17
2024-03-16T04:33:01.923Z,60.03
2024-03-16T04:33:34.486Z,59.96
2024-03-16T04:34:07.221Z,60.19
2024-03-16T04:34:40.373Z,60.42
2024-03-16T04:35:13.062Z,60.42
2024-03-16T04:35:46.504Z,60.26
2024-03-16T04:36:19.010Z,60.21
2024-03-16T04:36:51.556Z,60.24
2024-03-16T04:37:24.320Z,59.89
2024-03-16T04:37:57.146Z,59.61
2024-03-16T04:38:29.634Z,59.71
2024-03-16T04:39:02.740Z,59.73
2024-03-16T04:39:35.246Z,59.94
2024-03-16T04:40:08.510Z,59.76
2024-03-16T04:40:41.054Z,59.42
2024-03-16T04:41:14.356Z,59.58
2024-03-16T04:41:46.856Z,59.56
2024-03-16T04:42:19.438Z,59.49
2024-03-16T04:42:51.970Z,59.55
2024-03-16T04:43:25.928Z,59.71
2024-03-16T04:43:58.459Z,59.51
2024-03-16T04:44:30.959Z,59.22
2024-03-16T04:45:03.598Z,59.28
2024-03-16T04:45:36.120Z,59.22
2024-03-16T04:46:09.103Z,59.21
2024-03-16T04:46:41.688Z,59.20
2024-03-16T04:47:14.459Z,59.08
2024-03-16T04:47:46.992Z,59.26
2024-03-16T04:48:19.594Z,59.44
2024-03-16T04:48:52.137Z,59.49
2024-03-16T04:49:24.713Z,59.52
2024-03-16T04:49:57.306Z,59.47
2024-03-16T04:50:29.906Z,59.52
2024-03-16T04:51:02.455Z,59.47
2024-03-16T04:51:35.008Z,59.60
2024-03-16T04:52:11.458Z,59.47
2024-03-16T04:52:44.023Z,59.51
2024-03-16T04:53:16.768Z,59.48
2024-03-16T04:53:49.295Z,59.50
2024-03-16T04:54:21.844Z,59.87
2024-03-16T04:54:54.424Z,59.74
2024-03-16T04:55:26.963Z,59.47
2024-03-16T04:56:00.007Z,59.50
2024-03-16T04:56:32.548Z,59.70
2024-03-16T04:57:05.160Z,59.72
2024-03-16T04:57:37.675Z,59.43
2024-03-16T04:58:10.270Z,59.44
2024-03-16T04:58:42.774Z,59.57
2024-03-16T04:59:15.297Z,59.52
2024-03-16T04:59:47.793Z,59.43
2024-03-16T05:00:20.584Z,59.62
2024-03-16T05:00:53.205Z,59.64
2024-03-16T05:01:25.848Z,59.33
2024-03-16T05:01:58.497Z,59.36
2024-03-16T05:02:31.975Z,59.38
2024-03-16T05:03:04.760Z,59.38
2024-03-16T05:03:37.292Z,59.32
2024-03-16T05:04:09.899Z,59.25
2024-03-16T05:04:42.450Z,59.41
2024-03-16T05:05:15.000Z,59.29
2024-03-16T05:05:47.492Z,59.22
2024-03-16T05:06:20.041Z,59.37
2024-03-16T05:06:52.548Z,59.50
2024-03-16T05:07:25.073Z,59.83
2024-03-16T05:07:57.557Z,59.62
2024-03-16T05:08:30.876Z,59.79
2024-03-16T05:09:07.041Z,60.42
2024-03-16T05:09:39.799Z,61.19
2024-03-16T05:10:12.739Z,60.84
2024-03-16T05:10:52.029Z,60.55
2024-03-16T05:11:25.253Z,63.58
2024-03-16T05:11:57.848Z,68.88
2024-03-16T05:12:30.350Z,70.63
2024-03-16T05:13:02.944Z,70.31
2024-03-16T05:13:35.539Z,68.87
2024-03-16T05:14:08.630Z,66.92
2024-03-16T05:14:41.155Z,74.12
2024-03-16T05:15:13.685Z,81.05
2024-03-16T05:15:46.255Z,83.73
2024-03-16T05:16:18.863Z,84.95
2024-03-16T05:16:51.395Z,84.89
2024-03-16T05:17:23.892Z,83.99
2024-03-16T05:17:56.425Z,84.41
2024-03-16T05:18:29.022Z,85.78
2024-03-16T05:19:05.976Z,85.01
2024-03-16T05:19:38.457Z,84.71
2024-03-16T05:20:11.654Z,83.59
2024-03-16T05:20:44.361Z,82.52
2024-03-16T05:21:16.884Z,82.31
2024-03-16T05:21:49.465Z,80.98
2024-03-16T05:22:22.054Z,79.43
2024-03-16T05:22:54.605Z,79.36
2024-03-16T05:23:27.159Z,77.23
2024-03-16T05:24:02.941Z,76.06
2024-03-16T05:24:35.564Z,76.02
2024-03-16T05:25:08.210Z,74.93
2024-03-16T05:25:40.888Z,75.54
2024-03-16T05:26:14.732Z,76.37
2024-03-16T05:26:48.410Z,76.19
2024-03-16T05:27:20.889Z,76.16
2024-03-16T05:27:53.484Z,75.30
2024-03-16T05:28:27.947Z,75.25
2024-03-16T05:29:00.761Z,75.08
2024-03-16T05:29:33.356Z,74.42
2024-03-16T05:30:09.072Z,74.06
2024-03-16T05:30:41.747Z,74.62
2024-03-16T05:31:14.375Z,75.51
2024-03-16T05:31:59.076Z,76.64
2024-03-16T05:32:31.613Z,76.09
2024-03-16T05:33:05.543Z,76.83
2024-03-16T05:33:38.238Z,76.82
2024-03-16T05:34:10.793Z,75.34
2024-03-16T05:34:43.313Z,75.52
2024-03-16T05:35:15.817Z,76.54
2024-03-16T05:35:48.828Z,77.00
2024-03-16T05:36:21.413Z,77.11
2024-03-16T05:36:54.106Z,77.18
2024-03-16T05:37:29.420Z,78.30
2024-03-16T05:38:02.666Z,77.16
2024-03-16T05:38:35.182Z,77.82
2024-03-16T05:39:07.680Z,78.41
2024-03-16T05:39:40.206Z,77.88
2024-03-16T05:40:12.785Z,78.29
2024-03-16T05:40:47.247Z,79.15
2024-03-16T05:41:19.808Z,79.45
2024-03-16T05:41:52.418Z,78.93
2024-03-16T05:42:24.937Z,78.71
2024-03-16T05:42:57.584Z,78.99
2024-03-16T05:43:30.099Z,78.81
2024-03-16T05:44:02.638Z,78.84
2024-03-16T05:44:35.160Z,79.06
2024-03-16T05:45:08.408Z,79.55
2024-03-16T05:45:41.198Z,79.86
2024-03-16T05:46:13.908Z,80.32
2024-03-16T05:46:46.421Z,80.25
2024-03-16T05:47:22.768Z,79.24
2024-03-16T05:47:55.394Z,78.80
2024-03-16T05:48:28.671Z,78.64
2024-03-16T05:49:01.290Z,79.06
2024-03-16T05:49:33.858Z,79.14
2024-03-16T05:50:06.852Z,79.12
2024-03-16T05:50:39.359Z,79.16
2024-03-16T05:51:11.890Z,79.28
2024-03-16T05:51:44.618Z,79.33
2024-03-16T05:52:17.303Z,79.64
2024-03-16T05:52:49.853Z,79.40
2024-03-16T05:53:23.353Z,78.95
2024-03-16T05:53:56.453Z,78.57
2024-03-16T05:54:32.567Z,78.36
2024-03-16T05:55:05.967Z,79.13
2024-03-16T05:55:38.782Z,78.81
2024-03-16T05:56:14.088Z,78.95
2024-03-16T05:56:47.173Z,79.49
2024-03-16T05:57:19.739Z,79.31
2024-03-16T05:57:52.660Z,79.24
2024-03-16T05:58:25.225Z,80.34
2024-03-16T05:58:58.605Z,79.65
2024-03-16T05:59:31.309Z,79.52
2024-03-16T06:00:14.461Z,79.84
2024-03-16T06:00:47.010Z,79.88
2024-03-16T06:01:19.860Z,79.98
2024-03-16T06:01:53.329Z,79.27
2024-03-16T06:02:26.227Z,79.34
2024-03-16T06:02:58.726Z,80.11
2024-03-16T06:03:31.877Z,80.70
2024-03-16T06:04:04.547Z,81.58
2024-03-16T06:04:37.218Z,81.29
2024-03-16T06:05:10.889Z,81.81
2024-03-16T06:05:44.328Z,82.55
2024-03-16T06:06:17.001Z,81.27
2024-03-16T06:06:49.591Z,80.55
2024-03-16T06:07:22.108Z,81.64
2024-03-16T06:07:54.611Z,81.00
2024-03-16T06:08:27.174Z,81.20
2024-03-16T06:08:59.716Z,80.83
2024-03-16T06:09:32.302Z,80.25
2024-03-16T06:10:04.910Z,78.99
2024-03-16T06:10:37.824Z,79.70
2024-03-16T06:11:10.352Z,78.59
2024-03-16T06:11:42.891Z,78.94
2024-03-16T06:12:15.414Z,79.81
2024-03-16T06:12:47.954Z,79.05
2024-03-16T06:13:20.584Z,78.54
2024-03-16T06:13:53.330Z,78.56
2024-03-16T06:14:25.889Z,78.08
2024-03-16T06:14:58.999Z,76.59
2024-03-16T06:15:31.694Z,76.70
2024-03-16T06:16:04.781Z,77.60
2024-03-16T06:16:38.689Z,78.81
2024-03-16T06:17:11.243Z,76.72
2024-03-16T06:17:44.361Z,77.13
2024-03-16T06:18:16.907Z,79.01
2024-03-16T06:18:49.475Z,80.08
2024-03-16T06:19:22.073Z,79.45
2024-03-16T06:19:55.607Z,78.41
2024-03-16T06:20:28.405Z,78.03
2024-03-16T06:21:00.970Z,77.97
2024-03-16T06:21:33.768Z,76.71
2024-03-16T06:22:06.889Z,77.36
2024-03-16T06:22:39.458Z,77.67
2024-03-16T06:23:11.999Z,77.91
2024-03-16T06:23:44.500Z,77.27
2024-03-16T06:24:17.121Z,76.54
2024-03-16T06:24:49.698Z,75.65
2024-03-16T06:25:22.203Z,76.13
2024-03-16T06:26:02.477Z,76.59
2024-03-16T06:26:37.674Z,75.21
2024-03-16T06:27:12.684Z,74.04
2024-03-16T06:27:50.535Z,74.69
2024-03-16T06:28:23.349Z,74.64
2024-03-16T06:28:57.604Z,74.70
2024-03-16T06:29:32.024Z,75.12
2024-03-16T06:30:08.334Z,74.86
2024-03-16T06:30:40.887Z,74.55
2024-03-16T06:31:13.548Z,74.90
2024-03-16T06:31:49.314Z,75.91
2024-03-16T06:32:22.165Z,75.87
2024-03-16T06:33:07.547Z,76.00
2024-03-16T06:33:46.509Z,76.38
2024-03-16T06:34:20.572Z,75.46
2024-03-16T06:34:54.646Z,74.11
2024-03-16T06:35:27.957Z,73.53
2024-03-16T06:36:00.502Z,74.16
2024-03-16T06:36:34.432Z,75.73
2024-03-16T06:37:06.994Z,75.59
2024-03-16T06:37:39.541Z,75.90
2024-03-16T06:38:12.225Z,75.19
2024-03-16T06:38:44.763Z,73.65
2024-03-16T06:39:22.672Z,73.85
2024-03-16T06:39:55.225Z,74.41
2024-03-16T06:40:27.737Z,75.07
2024-03-16T06:41:00.319Z,76.30
2024-03-16T06:41:32.869Z,75.60
2024-03-16T06:42:05.487Z,74.80
2024-03-16T06:42:38.017Z,75.00
2024-03-16T06:43:10.600Z,74.26
2024-03-16T06:43:43.165Z,74.69
2024-03-16T06:44:15.690Z,74.28
2024-03-16T06:44:48.497Z,73.95
2024-03-16T06:45:21.113Z,72.82
2024-03-16T06:45:53.646Z,72.79
2024-03-16T06:46:26.211Z,72.75
2024-03-16T06:46:58.703Z,72.30
2024-03-16T06:47:31.273Z,73.47
2024-03-16T06:48:04.022Z,73.54
2024-03-16T06:48:36.641Z,72.53
2024-03-16T06:49:10.025Z,72.06
2024-03-16T06:49:42.559Z,71.90
2024-03-16T06:50:15.212Z,71.70
2024-03-16T06:50:49.910Z,72.21
2024-03-16T06:51:22.456Z,73.65
2024-03-16T06:51:55.470Z,72.99
2024-03-16T06:52:28.046Z,72.44
2024-03-16T06:53:00.697Z,72.22
2024-03-16T06:53:33.238Z,70.85
2024-03-16T06:54:06.323Z,71.30
2024-03-16T06:54:38.874Z,71.83
2024-03-16T06:55:11.481Z,72.92
2024-03-16T06:55:51.556Z,71.97
2024-03-16T06:56:24.555Z,71.14
2024-03-16T06:56:57.047Z,71.69
2024-03-16T06:57:29.558Z,72.43
2024-03-16T06:58:02.163Z,72.56
2024-03-16T06:58:34.678Z,71.49
2024-03-16T06:59:07.260Z,70.96
2024-03-16T06:59:39.752Z,71.33
2024-03-16T07:00:12.736Z,72.46
2024-03-16T07:00:45.526Z,73.30
2024-03-16T07:01:18.990Z,72.87
2024-03-16T07:01:52.339Z,71.97
2024-03-16T07:02:24.953Z,71.97
2024-03-16T07:02:57.484Z,71.49
2024-03-16T07:03:30.010Z,71.49
2024-03-16T07:04:02.619Z,71.51
2024-03-16T07:04:35.171Z,70.67
2024-03-16T07:05:10.933Z,70.37
2024-03-16T07:05:43.428Z,69.80
2024-03-16T07:06:15.938Z,70.99
2024-03-16T07:06:48.542Z,71.03
2024-03-16T07:07:21.134Z,70.56
2024-03-16T07:07:53.642Z,70.31